createdAt,value
2016-09-27T00:00:00.753Z,1013.41
2016-09-27T00:01:00.732Z,1013.43
2016-09-27T00:02:00.708Z,1013.44
2016-09-27T00:03:00.684Z,1013.46
2016-09-27T00:04:00.661Z,1013.44
2016-09-27T00:05:00.641Z,1013.43
2016-09-27T00:06:00.615Z,1013.44
2016-09-27T00:07:00.591Z,1013.49
2016-09-27T00:08:00.567Z,1013.49
2016-09-27T00:09:00.547Z,1013.53
2016-09-27T00:10:00.521Z,1013.5
2016-09-27T00:11:00.497Z,1013.5
2016-09-27T00:12:00.475Z,1013.5
2016-09-27T00:13:00.450Z,1013.51
2016-09-27T00:14:00.426Z,1013.51
2016-09-27T00:15:00.402Z,1013.5
2016-09-27T00:16:00.380Z,1013.49
2016-09-27T00:17:00.358Z,1013.5
2016-09-27T00:18:00.332Z,1013.5
2016-09-27T00:19:00.309Z,1013.47
2016-09-27T00:20:00.285Z,1013.45
2016-09-27T00:21:00.263Z,1013.47
2016-09-27T00:22:00.237Z,1013.46
2016-09-27T00:23:00.214Z,1013.5
2016-09-27T00:24:00.192Z,1013.49
2016-09-27T00:25:00.173Z,1013.53
2016-09-27T00:26:00.144Z,1013.54
2016-09-27T00:27:00.120Z,1013.55
2016-09-27T00:28:00.101Z,1013.56
2016-09-27T00:29:00.073Z,1013.5
2016-09-27T00:30:00.052Z,1013.54
2016-09-27T00:31:00.026Z,1013.58
2016-09-27T00:32:00.005Z,1013.54
2016-09-27T00:32:59.978Z,1013.55
2016-09-27T00:33:59.955Z,1013.6
2016-09-27T00:34:59.932Z,1013.56
2016-09-27T00:35:59.907Z,1013.57
2016-09-27T00:36:59.883Z,1013.55
2016-09-27T00:37:59.861Z,1013.56
2016-09-27T00:38:59.837Z,1013.57
2016-09-27T00:39:59.812Z,1013.54
2016-09-27T00:40:59.788Z,1013.55
2016-09-27T00:41:59.766Z,1013.56
2016-09-27T00:42:59.741Z,1013.53
2016-09-27T00:43:59.718Z,1013.56
2016-09-27T00:44:59.700Z,1013.58
2016-09-27T00:45:59.670Z,1013.55
2016-09-27T00:46:59.649Z,1013.53
2016-09-27T00:47:59.624Z,1013.53
2016-09-27T00:48:59.600Z,1013.54
2016-09-27T00:49:59.578Z,1013.53
2016-09-27T00:50:59.554Z,1013.54
2016-09-27T00:51:59.529Z,1013.55
2016-09-27T00:52:59.507Z,1013.58
2016-09-27T00:53:59.480Z,1013.58
2016-09-27T00:54:59.457Z,1013.6
2016-09-27T00:55:59.435Z,1013.63
2016-09-27T00:56:59.410Z,1013.62
2016-09-27T00:57:59.386Z,1013.66
2016-09-27T00:58:59.363Z,1013.64
2016-09-27T00:59:59.340Z,1013.68
2016-09-27T01:00:59.317Z,1013.66
2016-09-27T01:01:59.291Z,1013.67
2016-09-27T01:02:59.268Z,1013.69
2016-09-27T01:03:59.245Z,1013.67
2016-09-27T01:04:59.221Z,1013.65
2016-09-27T01:05:59.199Z,1013.66
2016-09-27T01:06:59.174Z,1013.67
2016-09-27T01:07:59.151Z,1013.62
2016-09-27T01:08:59.129Z,1013.64
2016-09-27T01:09:59.103Z,1013.66
2016-09-27T01:10:59.081Z,1013.69
2016-09-27T01:11:59.057Z,1013.65
2016-09-27T01:12:59.032Z,1013.7
2016-09-27T01:13:59.009Z,1013.74
2016-09-27T01:14:58.985Z,1013.7
2016-09-27T01:15:58.961Z,1013.69
2016-09-27T01:16:58.965Z,1013.71
2016-09-27T01:17:58.914Z,1013.7
2016-09-27T01:18:58.892Z,1013.69
2016-09-27T01:19:58.867Z,1013.67
2016-09-27T01:20:58.845Z,1013.65
2016-09-27T01:21:58.821Z,1013.64
2016-09-27T01:22:58.797Z,1013.66
2016-09-27T01:23:58.773Z,1013.66
2016-09-27T01:24:58.751Z,1013.65
2016-09-27T01:25:58.726Z,1013.69
2016-09-27T01:26:58.702Z,1013.64
2016-09-27T01:27:58.679Z,1013.67
2016-09-27T01:28:58.657Z,1013.69
2016-09-27T01:29:58.632Z,1013.76
2016-09-27T01:30:58.607Z,1013.75
2016-09-27T01:31:58.584Z,1013.81
2016-09-27T01:32:58.562Z,1013.79
2016-09-27T01:33:58.538Z,1013.78
2016-09-27T01:34:58.513Z,1013.79
2016-09-27T01:35:58.490Z,1013.78
2016-09-27T01:36:58.475Z,1013.77
2016-09-27T01:37:58.443Z,1013.78
2016-09-27T01:38:58.420Z,1013.82
2016-09-27T01:39:58.397Z,1013.86
2016-09-27T01:40:58.373Z,1013.86
2016-09-27T01:41:58.349Z,1013.84
2016-09-27T01:42:58.325Z,1013.85
2016-09-27T01:43:58.301Z,1013.82
2016-09-27T01:44:58.278Z,1013.84
2016-09-27T01:45:58.253Z,1013.83
2016-09-27T01:46:58.231Z,1013.85
2016-09-27T01:47:58.207Z,1013.83
2016-09-27T01:48:58.187Z,1013.81
2016-09-27T01:49:58.158Z,1013.81
2016-09-27T01:50:58.134Z,1013.78
2016-09-27T01:51:58.110Z,1013.81
2016-09-27T01:52:58.085Z,1013.77
2016-09-27T01:53:58.063Z,1013.71
2016-09-27T01:54:58.039Z,1013.77
2016-09-27T01:55:58.015Z,1013.75
2016-09-27T01:56:57.989Z,1013.77
2016-09-27T01:57:57.966Z,1013.79
2016-09-27T01:58:57.942Z,1013.79
2016-09-27T01:59:57.917Z,1013.78
2016-09-27T02:00:57.894Z,1013.79
2016-09-27T02:01:57.875Z,1013.81
2016-09-27T02:02:57.846Z,1013.83
2016-09-27T02:03:57.820Z,1013.84
2016-09-27T02:04:57.796Z,1013.85
2016-09-27T02:05:57.773Z,1013.84
2016-09-27T02:06:57.751Z,1013.81
2016-09-27T02:07:57.723Z,1013.84
2016-09-27T02:08:57.699Z,1013.89
2016-09-27T02:09:57.676Z,1013.87
2016-09-27T02:10:57.652Z,1013.9
2016-09-27T02:11:57.628Z,1013.88
2016-09-27T02:12:57.602Z,1013.89
2016-09-27T02:13:57.580Z,1013.95
2016-09-27T02:14:57.554Z,1013.95
2016-09-27T02:15:57.530Z,1013.95
2016-09-27T02:16:57.506Z,1013.93
2016-09-27T02:17:57.482Z,1013.96
2016-09-27T02:18:57.460Z,1013.98
2016-09-27T02:19:57.434Z,1013.97
2016-09-27T02:20:57.409Z,1014.01
2016-09-27T02:21:57.387Z,1013.98
2016-09-27T02:22:57.362Z,1013.98
2016-09-27T02:23:57.338Z,1014.02
2016-09-27T02:24:57.313Z,1014.01
2016-09-27T02:25:57.287Z,1013.99
2016-09-27T02:26:57.264Z,1013.98
2016-09-27T02:27:57.240Z,1013.99
2016-09-27T02:28:57.215Z,1013.93
2016-09-27T02:29:57.190Z,1013.93
2016-09-27T02:30:57.166Z,1013.96
2016-09-27T02:31:57.142Z,1013.91
2016-09-27T02:32:57.119Z,1013.89
2016-09-27T02:33:57.094Z,1013.89
2016-09-27T02:34:57.070Z,1013.9
2016-09-27T02:35:57.044Z,1013.88
2016-09-27T02:36:57.019Z,1013.9
2016-09-27T02:37:56.996Z,1013.88
2016-09-27T02:38:56.977Z,1013.88
2016-09-27T02:39:56.946Z,1013.89
2016-09-27T02:40:56.921Z,1013.89
2016-09-27T02:41:56.898Z,1013.88
2016-09-27T02:42:56.873Z,1013.88
2016-09-27T02:43:56.848Z,1013.93
2016-09-27T02:44:56.826Z,1013.92
2016-09-27T02:45:56.801Z,1013.9
2016-09-27T02:46:56.778Z,1013.92
2016-09-27T02:47:56.752Z,1013.96
2016-09-27T02:48:56.727Z,1013.97
2016-09-27T02:49:56.703Z,1013.96
2016-09-27T02:50:56.690Z,1014
2016-09-27T02:51:56.656Z,1014
2016-09-27T02:52:56.630Z,1014.02
2016-09-27T02:53:56.606Z,1014
2016-09-27T02:54:56.581Z,1013.98
2016-09-27T02:55:56.557Z,1013.95
2016-09-27T02:56:56.535Z,1013.98
2016-09-27T02:57:56.510Z,1013.96
2016-09-27T02:58:56.484Z,1013.96
2016-09-27T02:59:56.461Z,1013.97
2016-09-27T03:00:56.437Z,1014
2016-09-27T03:01:56.410Z,1014
2016-09-27T03:02:56.387Z,1014
2016-09-27T03:03:56.664Z,1014.03
2016-09-27T03:04:56.340Z,1014.02
2016-09-27T03:05:56.315Z,1014.08
2016-09-27T03:06:56.290Z,1014.07
2016-09-27T03:07:56.267Z,1014.07
2016-09-27T03:08:56.242Z,1014.1
2016-09-27T03:09:56.216Z,1014.08
2016-09-27T03:10:56.193Z,1014.09
2016-09-27T03:11:56.169Z,1014.15
2016-09-27T03:12:56.144Z,1014.13
2016-09-27T03:13:56.121Z,1014.14
2016-09-27T03:14:56.095Z,1014.13
2016-09-27T03:15:56.073Z,1014.15
2016-09-27T03:16:56.047Z,1014.16
2016-09-27T03:17:56.021Z,1014.19
2016-09-27T03:18:55.998Z,1014.18
2016-09-27T03:19:55.974Z,1014.2
2016-09-27T03:20:55.949Z,1014.21
2016-09-27T03:21:55.926Z,1014.21
2016-09-27T03:22:55.901Z,1014.21
2016-09-27T03:23:55.876Z,1014.2
2016-09-27T03:24:55.854Z,1014.2
2016-09-27T03:25:55.830Z,1014.18
2016-09-27T03:26:55.806Z,1014.17
2016-09-27T03:27:55.781Z,1014.18
2016-09-27T03:28:55.757Z,1014.18
2016-09-27T03:29:55.733Z,1014.21
2016-09-27T03:30:55.709Z,1014.22
2016-09-27T03:31:55.684Z,1014.25
2016-09-27T03:32:55.661Z,1014.24
2016-09-27T03:33:55.636Z,1014.24
2016-09-27T03:34:55.611Z,1014.23
2016-09-27T03:35:55.594Z,1014.25
2016-09-27T03:36:55.563Z,1014.3
2016-09-27T03:37:55.539Z,1014.29
2016-09-27T03:38:55.515Z,1014.25
2016-09-27T03:39:55.492Z,1014.29
2016-09-27T03:40:55.468Z,1014.26
2016-09-27T03:41:55.442Z,1014.24
2016-09-27T03:42:55.417Z,1014.28
2016-09-27T03:43:55.397Z,1014.27
2016-09-27T03:44:55.369Z,1014.26
2016-09-27T03:45:55.345Z,1014.27
2016-09-27T03:46:55.321Z,1014.28
2016-09-27T03:47:55.296Z,1014.28
2016-09-27T03:48:55.273Z,1014.3
2016-09-27T03:49:55.247Z,1014.29
2016-09-27T03:50:55.224Z,1014.26
2016-09-27T03:51:55.199Z,1014.28
2016-09-27T03:52:55.175Z,1014.25
2016-09-27T03:53:55.151Z,1014.28
2016-09-27T03:54:55.128Z,1014.28
2016-09-27T03:55:55.104Z,1014.27
2016-09-27T03:56:55.077Z,1014.25
2016-09-27T03:57:55.053Z,1014.28
2016-09-27T03:58:55.029Z,1014.26
2016-09-27T03:59:55.006Z,1014.31
2016-09-27T04:00:54.981Z,1014.27
2016-09-27T04:01:54.956Z,1014.38
2016-09-27T04:02:54.931Z,1014.35
2016-09-27T04:03:54.906Z,1014.38
2016-09-27T04:04:54.882Z,1014.39
2016-09-27T04:05:54.858Z,1014.4
2016-09-27T04:06:54.833Z,1014.39
2016-09-27T04:07:54.808Z,1014.38
2016-09-27T04:08:54.785Z,1014.35
2016-09-27T04:09:54.759Z,1014.39
2016-09-27T04:10:54.735Z,1014.39
2016-09-27T04:11:54.710Z,1014.35
2016-09-27T04:12:54.685Z,1014.37
2016-09-27T04:13:54.661Z,1014.35
2016-09-27T04:14:54.635Z,1014.4
2016-09-27T04:15:54.611Z,1014.41
2016-09-27T04:16:54.588Z,1014.38
2016-09-27T04:17:54.562Z,1014.39
2016-09-27T04:18:54.538Z,1014.38
2016-09-27T04:19:54.511Z,1014.4
2016-09-27T04:20:54.487Z,1014.43
2016-09-27T04:21:54.462Z,1014.4
2016-09-27T04:22:54.437Z,1014.39
2016-09-27T04:23:54.413Z,1014.39
2016-09-27T04:24:54.388Z,1014.37
2016-09-27T04:25:54.365Z,1014.41
2016-09-27T04:26:54.338Z,1014.4
2016-09-27T04:27:54.313Z,1014.43
2016-09-27T04:28:54.290Z,1014.43
2016-09-27T04:29:54.263Z,1014.43
2016-09-27T04:30:54.239Z,1014.48
2016-09-27T04:31:54.214Z,1014.47
2016-09-27T04:32:54.189Z,1014.48
2016-09-27T04:33:54.165Z,1014.5
2016-09-27T04:34:54.139Z,1014.52
2016-09-27T04:35:54.114Z,1014.56
2016-09-27T04:36:54.088Z,1014.6
2016-09-27T04:37:54.063Z,1014.59
2016-09-27T04:38:54.053Z,1014.61
2016-09-27T04:39:54.014Z,1014.65
2016-09-27T04:40:53.988Z,1014.63
2016-09-27T04:41:53.963Z,1014.64
2016-09-27T04:42:53.938Z,1014.64
2016-09-27T04:43:53.914Z,1014.61
2016-09-27T04:44:53.888Z,1014.62
2016-09-27T04:45:53.862Z,1014.62
2016-09-27T04:46:53.839Z,1014.65
2016-09-27T04:47:53.812Z,1014.64
2016-09-27T04:48:53.787Z,1014.66
2016-09-27T04:49:53.763Z,1014.66
2016-09-27T04:50:53.738Z,1014.67
2016-09-27T04:51:53.717Z,1014.71
2016-09-27T04:52:53.687Z,1014.72
2016-09-27T04:53:53.662Z,1014.71
2016-09-27T04:54:53.639Z,1014.71
2016-09-27T04:55:53.612Z,1014.72
2016-09-27T04:56:53.587Z,1014.7
2016-09-27T04:57:53.561Z,1014.77
2016-09-27T04:58:53.536Z,1014.77
2016-09-27T04:59:53.510Z,1014.81
2016-09-27T05:00:53.486Z,1014.76
2016-09-27T05:01:53.460Z,1014.8
2016-09-27T05:02:53.435Z,1014.78
2016-09-27T05:03:53.411Z,1014.74
2016-09-27T05:04:53.387Z,1014.75
2016-09-27T05:05:53.360Z,1014.76
2016-09-27T05:06:53.335Z,1014.72
2016-09-27T05:07:53.309Z,1014.69
2016-09-27T05:08:53.283Z,1014.75
2016-09-27T05:09:53.259Z,1014.77
2016-09-27T05:10:53.235Z,1014.8
2016-09-27T05:11:53.209Z,1014.81
2016-09-27T05:12:53.185Z,1014.8
2016-09-27T05:13:53.159Z,1014.83
2016-09-27T05:14:53.134Z,1014.81
2016-09-27T05:15:53.109Z,1014.81
2016-09-27T05:16:53.082Z,1014.84
2016-09-27T05:17:53.058Z,1014.85
2016-09-27T05:18:53.032Z,1014.82
2016-09-27T05:19:53.007Z,1014.79
2016-09-27T05:20:52.981Z,1014.81
2016-09-27T05:21:52.962Z,1014.78
2016-09-27T05:22:52.931Z,1014.81
2016-09-27T05:23:52.907Z,1014.8
2016-09-27T05:24:52.880Z,1014.82
2016-09-27T05:25:52.855Z,1014.82
2016-09-27T05:26:52.830Z,1014.84
2016-09-27T05:27:52.821Z,1014.87
2016-09-27T05:28:52.781Z,1014.88
2016-09-27T05:29:52.755Z,1014.95
2016-09-27T05:30:52.731Z,1014.91
2016-09-27T05:31:52.704Z,1014.91
2016-09-27T05:32:52.678Z,1014.87
2016-09-27T05:33:52.654Z,1014.88
2016-09-27T05:34:52.629Z,1014.84
2016-09-27T05:35:52.603Z,1014.84
2016-09-27T05:36:52.577Z,1014.79
2016-09-27T05:37:52.552Z,1014.77
2016-09-27T05:38:52.525Z,1014.79
2016-09-27T05:39:52.500Z,1014.82
2016-09-27T05:40:52.476Z,1014.82
2016-09-27T05:41:52.450Z,1014.88
2016-09-27T05:42:52.425Z,1014.85
2016-09-27T05:43:52.400Z,1014.83
2016-09-27T05:44:52.374Z,1014.85
2016-09-27T05:45:52.349Z,1014.83
2016-09-27T05:46:52.323Z,1014.8
2016-09-27T05:47:52.300Z,1014.82
2016-09-27T05:48:52.280Z,1014.8
2016-09-27T05:49:52.258Z,1014.79
2016-09-27T05:50:52.223Z,1014.81
2016-09-27T05:51:52.198Z,1014.82
2016-09-27T05:52:52.171Z,1014.8
2016-09-27T05:53:52.146Z,1014.83
2016-09-27T05:54:52.122Z,1014.82
2016-09-27T05:55:52.097Z,1014.81
2016-09-27T05:56:52.122Z,1014.82
2016-09-27T05:57:52.046Z,1014.87
2016-09-27T05:58:52.021Z,1014.89
2016-09-27T05:59:52.077Z,1014.92
2016-09-27T06:00:51.971Z,1014.93
2016-09-27T06:01:51.945Z,1014.95
2016-09-27T06:02:51.922Z,1014.98
2016-09-27T06:03:51.897Z,1015
2016-09-27T06:04:51.870Z,1015.01
2016-09-27T06:05:51.844Z,1015.02
2016-09-27T06:06:51.820Z,1015.03
2016-09-27T06:07:51.794Z,1015.04
2016-09-27T06:08:51.770Z,1015.05
2016-09-27T06:09:51.743Z,1015.07
2016-09-27T06:10:51.720Z,1015.13
2016-09-27T06:11:51.693Z,1015.15
2016-09-27T06:12:51.669Z,1015.15
2016-09-27T06:13:51.644Z,1015.17
2016-09-27T06:14:51.645Z,1015.19
2016-09-27T06:15:51.594Z,1015.19
2016-09-27T06:16:51.569Z,1015.21
2016-09-27T06:17:51.544Z,1015.14
2016-09-27T06:18:51.520Z,1015.17
2016-09-27T06:19:51.493Z,1015.18
2016-09-27T06:20:51.470Z,1015.17
2016-09-27T06:21:51.445Z,1015.22
2016-09-27T06:22:51.419Z,1015.24
2016-09-27T06:23:51.395Z,1015.24
2016-09-27T06:24:51.370Z,1015.21
2016-09-27T06:25:51.345Z,1015.22
2016-09-27T06:26:51.320Z,1015.18
2016-09-27T06:27:51.295Z,1015.22
2016-09-27T06:28:51.271Z,1015.19
2016-09-27T06:29:51.247Z,1015.22
2016-09-27T06:30:51.222Z,1015.22
2016-09-27T06:31:51.196Z,1015.24
2016-09-27T06:32:51.174Z,1015.24
2016-09-27T06:33:51.148Z,1015.3
2016-09-27T06:34:51.123Z,1015.29
2016-09-27T06:35:51.097Z,1015.27
2016-09-27T06:36:51.075Z,1015.27
2016-09-27T06:37:51.048Z,1015.31
2016-09-27T06:38:51.024Z,1015.33
2016-09-27T06:39:51.000Z,1015.32
2016-09-27T06:40:50.975Z,1015.3
2016-09-27T06:41:50.951Z,1015.31
2016-09-27T06:42:50.933Z,1015.35
2016-09-27T06:43:50.904Z,1015.32
2016-09-27T06:44:50.878Z,1015.35
2016-09-27T06:45:50.854Z,1015.32
2016-09-27T06:46:50.830Z,1015.34
2016-09-27T06:47:50.806Z,1015.32
2016-09-27T06:48:50.784Z,1015.33
2016-09-27T06:49:50.757Z,1015.33
2016-09-27T06:50:50.733Z,1015.38
2016-09-27T06:51:50.709Z,1015.35
2016-09-27T06:52:50.685Z,1015.32
2016-09-27T06:53:50.661Z,1015.3
2016-09-27T06:54:50.637Z,1015.28
2016-09-27T06:55:50.613Z,1015.29
2016-09-27T06:56:50.588Z,1015.28
2016-09-27T06:57:50.564Z,1015.31
2016-09-27T06:58:50.541Z,1015.27
2016-09-27T06:59:50.516Z,1015.28
2016-09-27T07:00:50.494Z,1015.31
2016-09-27T07:01:50.469Z,1015.27
2016-09-27T07:02:50.445Z,1015.26
2016-09-27T07:03:50.422Z,1015.29
2016-09-27T07:04:50.398Z,1015.28
2016-09-27T07:05:50.375Z,1015.31
2016-09-27T07:06:50.350Z,1015.37
2016-09-27T07:07:50.331Z,1015.38
2016-09-27T07:08:50.304Z,1015.44
2016-09-27T07:09:50.281Z,1015.42
2016-09-27T07:10:50.257Z,1015.46
2016-09-27T07:11:50.233Z,1015.44
2016-09-27T07:12:50.210Z,1015.44
2016-09-27T07:13:50.186Z,1015.42
2016-09-27T07:14:50.162Z,1015.41
2016-09-27T07:15:50.138Z,1015.43
2016-09-27T07:16:50.115Z,1015.43
2016-09-27T07:17:50.092Z,1015.48
2016-09-27T07:18:50.069Z,1015.48
2016-09-27T07:19:50.045Z,1015.52
2016-09-27T07:20:50.021Z,1015.55
2016-09-27T07:21:49.997Z,1015.52
2016-09-27T07:22:49.975Z,1015.54
2016-09-27T07:23:49.951Z,1015.51
2016-09-27T07:24:49.926Z,1015.5
2016-09-27T07:25:49.904Z,1015.53
2016-09-27T07:26:49.880Z,1015.53
2016-09-27T07:27:49.858Z,1015.53
2016-09-27T07:28:49.833Z,1015.48
2016-09-27T07:29:49.810Z,1015.5
2016-09-27T07:30:49.789Z,1015.52
2016-09-27T07:31:49.766Z,1015.52
2016-09-27T07:32:49.741Z,1015.58
2016-09-27T07:33:49.718Z,1015.6
2016-09-27T07:34:49.695Z,1015.61
2016-09-27T07:35:49.673Z,1015.61
2016-09-27T07:36:49.649Z,1015.62
2016-09-27T07:37:49.626Z,1015.6
2016-09-27T07:38:49.605Z,1015.58
2016-09-27T07:39:49.581Z,1015.6
2016-09-27T07:40:49.557Z,1015.59
2016-09-27T07:41:49.535Z,1015.63
2016-09-27T07:42:49.512Z,1015.67
2016-09-27T07:43:49.489Z,1015.65
2016-09-27T07:44:49.467Z,1015.64
2016-09-27T07:45:49.444Z,1015.61
2016-09-27T07:46:49.422Z,1015.63
2016-09-27T07:47:49.399Z,1015.63
2016-09-27T07:48:49.375Z,1015.63
2016-09-27T07:49:49.354Z,1015.62
2016-09-27T07:50:49.331Z,1015.6
2016-09-27T07:51:49.308Z,1015.59
2016-09-27T07:52:49.286Z,1015.62
2016-09-27T07:53:49.265Z,1015.59
2016-09-27T07:54:49.240Z,1015.51
2016-09-27T07:55:49.219Z,1015.5
2016-09-27T07:56:49.195Z,1015.46
2016-09-27T07:57:49.174Z,1015.44
2016-09-27T07:58:49.151Z,1015.41
2016-09-27T07:59:49.129Z,1015.41
2016-09-27T08:00:49.107Z,1015.38
2016-09-27T08:01:49.083Z,1015.4
2016-09-27T08:02:49.062Z,1015.38
2016-09-27T08:03:49.039Z,1015.33
2016-09-27T08:04:49.018Z,1015.38
2016-09-27T08:05:48.996Z,1015.37
2016-09-27T08:06:48.974Z,1015.4
2016-09-27T08:07:48.952Z,1015.4
2016-09-27T08:08:48.929Z,1015.41
2016-09-27T08:09:48.908Z,1015.42
2016-09-27T08:10:48.885Z,1015.41
2016-09-27T08:11:48.863Z,1015.38
2016-09-27T08:12:48.845Z,1015.34
2016-09-27T08:13:48.819Z,1015.35
2016-09-27T08:14:48.798Z,1015.37
2016-09-27T08:15:48.777Z,1015.41
2016-09-27T08:16:48.754Z,1015.43
2016-09-27T08:17:48.733Z,1015.47
2016-09-27T08:18:48.711Z,1015.5
2016-09-27T08:19:48.689Z,1015.53
2016-09-27T08:20:48.667Z,1015.51
2016-09-27T08:21:48.651Z,1015.51
2016-09-27T08:22:48.625Z,1015.48
2016-09-27T08:23:48.601Z,1015.54
2016-09-27T08:24:48.580Z,1015.54
2016-09-27T08:25:48.560Z,1015.57
2016-09-27T08:26:48.537Z,1015.55
2016-09-27T08:27:48.517Z,1015.57
2016-09-27T08:28:48.495Z,1015.54
2016-09-27T08:29:48.474Z,1015.48
2016-09-27T08:30:48.452Z,1015.49
2016-09-27T08:31:48.428Z,1015.49
2016-09-27T08:32:48.409Z,1015.48
2016-09-27T08:33:48.387Z,1015.5
2016-09-27T08:34:48.366Z,1015.51
2016-09-27T08:35:48.345Z,1015.5
2016-09-27T08:36:48.324Z,1015.51
2016-09-27T08:37:48.302Z,1015.51
2016-09-27T08:38:48.281Z,1015.52
2016-09-27T08:39:48.261Z,1015.5
2016-09-27T08:40:48.240Z,1015.53
2016-09-27T08:41:48.218Z,1015.51
2016-09-27T08:42:48.197Z,1015.55
2016-09-27T08:43:48.177Z,1015.54
2016-09-27T08:44:48.157Z,1015.48
2016-09-27T08:45:48.135Z,1015.46
2016-09-27T08:46:48.115Z,1015.44
2016-09-27T08:47:48.094Z,1015.44
2016-09-27T08:48:48.107Z,1015.43
2016-09-27T08:49:48.051Z,1015.43
2016-09-27T08:50:48.031Z,1015.42
2016-09-27T08:51:48.010Z,1015.47
2016-09-27T08:52:47.989Z,1015.47
2016-09-27T08:53:47.967Z,1015.44
2016-09-27T08:54:47.948Z,1015.46
2016-09-27T08:55:47.927Z,1015.46
2016-09-27T08:56:47.905Z,1015.47
2016-09-27T08:57:47.885Z,1015.49
2016-09-27T08:58:47.866Z,1015.5
2016-09-27T08:59:47.845Z,1015.54
2016-09-27T09:00:47.824Z,1015.55
2016-09-27T09:01:47.803Z,1015.54
2016-09-27T09:02:47.783Z,1015.52
2016-09-27T09:03:47.761Z,1015.54
2016-09-27T09:04:47.741Z,1015.56
2016-09-27T09:05:47.722Z,1015.54
2016-09-27T09:06:47.702Z,1015.51
2016-09-27T09:07:47.680Z,1015.54
2016-09-27T09:08:47.660Z,1015.53
2016-09-27T09:09:47.641Z,1015.51
2016-09-27T09:10:47.619Z,1015.55
2016-09-27T09:11:47.601Z,1015.55
2016-09-27T09:12:47.580Z,1015.58
2016-09-27T09:13:47.567Z,1015.53
2016-09-27T09:14:47.538Z,1015.56
2016-09-27T09:15:47.519Z,1015.58
2016-09-27T09:16:47.500Z,1015.55
2016-09-27T09:17:47.479Z,1015.52
2016-09-27T09:18:47.459Z,1015.56
2016-09-27T09:19:47.440Z,1015.61
2016-09-27T09:20:47.419Z,1015.63
2016-09-27T09:21:47.398Z,1015.59
2016-09-27T09:22:47.379Z,1015.63
2016-09-27T09:23:47.359Z,1015.64
2016-09-27T09:24:47.340Z,1015.62
2016-09-27T09:25:47.318Z,1015.62
2016-09-27T09:26:47.299Z,1015.59
2016-09-27T09:27:47.286Z,1015.65
2016-09-27T09:28:47.261Z,1015.62
2016-09-27T09:29:47.240Z,1015.66
2016-09-27T09:30:47.220Z,1015.67
2016-09-27T09:31:47.201Z,1015.67
2016-09-27T09:32:47.180Z,1015.69
2016-09-27T09:33:47.161Z,1015.67
2016-09-27T09:34:47.142Z,1015.65
2016-09-27T09:35:47.123Z,1015.69
2016-09-27T09:36:47.112Z,1015.69
2016-09-27T09:37:47.082Z,1015.71
2016-09-27T09:38:47.064Z,1015.67
2016-09-27T09:39:47.044Z,1015.68
2016-09-27T09:40:47.025Z,1015.71
2016-09-27T09:41:47.005Z,1015.65
2016-09-27T09:42:46.985Z,1015.65
2016-09-27T09:43:46.965Z,1015.65
2016-09-27T09:44:46.950Z,1015.65
2016-09-27T09:45:46.927Z,1015.68
2016-09-27T09:46:46.908Z,1015.63
2016-09-27T09:47:46.887Z,1015.63
2016-09-27T09:48:46.869Z,1015.65
2016-09-27T09:49:46.850Z,1015.61
2016-09-27T09:50:46.836Z,1015.67
2016-09-27T09:51:46.810Z,1015.7
2016-09-27T09:52:46.793Z,1015.68
2016-09-27T09:53:46.772Z,1015.7
2016-09-27T09:54:46.753Z,1015.74
2016-09-27T09:55:46.734Z,1015.75
2016-09-27T09:56:46.716Z,1015.75
2016-09-27T09:57:46.697Z,1015.75
2016-09-27T09:58:46.676Z,1015.77
2016-09-27T09:59:46.659Z,1015.74
2016-09-27T10:00:46.638Z,1015.71
2016-09-27T10:01:46.620Z,1015.74
2016-09-27T10:02:46.600Z,1015.76
2016-09-27T10:03:46.587Z,1015.73
2016-09-27T10:04:46.564Z,1015.75
2016-09-27T10:05:46.545Z,1015.76
2016-09-27T10:06:46.525Z,1015.76
2016-09-27T10:07:46.507Z,1015.73
2016-09-27T10:08:46.488Z,1015.77
2016-09-27T10:09:46.468Z,1015.78
2016-09-27T10:10:46.450Z,1015.76
2016-09-27T10:11:46.432Z,1015.78
2016-09-27T10:12:46.413Z,1015.79
2016-09-27T10:13:46.396Z,1015.8
2016-09-27T10:14:46.375Z,1015.85
2016-09-27T10:15:46.359Z,1015.84
2016-09-27T10:16:46.339Z,1015.86
2016-09-27T10:17:46.321Z,1015.82
2016-09-27T10:18:46.302Z,1015.82
2016-09-27T10:19:46.284Z,1015.83
2016-09-27T10:20:46.265Z,1015.78
2016-09-27T10:21:46.251Z,1015.78
2016-09-27T10:22:46.227Z,1015.78
2016-09-27T10:23:46.207Z,1015.74
2016-09-27T10:24:46.189Z,1015.75
2016-09-27T10:25:46.173Z,1015.77
2016-09-27T10:26:46.154Z,1015.74
2016-09-27T10:27:46.135Z,1015.73
2016-09-27T10:28:46.116Z,1015.74
2016-09-27T10:29:46.097Z,1015.74
2016-09-27T10:30:46.079Z,1015.74
2016-09-27T10:31:46.061Z,1015.77
2016-09-27T10:32:46.043Z,1015.76
2016-09-27T10:33:46.024Z,1015.78
2016-09-27T10:34:46.004Z,1015.78
2016-09-27T10:35:45.987Z,1015.76
2016-09-27T10:36:45.969Z,1015.73
2016-09-27T10:37:45.951Z,1015.68
2016-09-27T10:38:45.932Z,1015.7
2016-09-27T10:39:45.919Z,1015.69
2016-09-27T10:40:45.896Z,1015.69
2016-09-27T10:41:45.879Z,1015.71
2016-09-27T10:42:45.860Z,1015.69
2016-09-27T10:43:45.842Z,1015.67
2016-09-27T10:44:45.824Z,1015.7
2016-09-27T10:45:45.806Z,1015.69
2016-09-27T10:46:45.788Z,1015.73
2016-09-27T10:47:45.770Z,1015.67
2016-09-27T10:48:45.753Z,1015.7
2016-09-27T10:49:45.735Z,1015.69
2016-09-27T10:50:45.719Z,1015.69
2016-09-27T10:51:45.702Z,1015.73
2016-09-27T10:52:45.683Z,1015.7
2016-09-27T10:53:45.666Z,1015.74
2016-09-27T10:54:45.650Z,1015.72
2016-09-27T10:55:45.632Z,1015.68
2016-09-27T10:56:45.614Z,1015.67
2016-09-27T10:57:45.598Z,1015.71
2016-09-27T10:58:45.580Z,1015.69
2016-09-27T10:59:45.563Z,1015.63
2016-09-27T11:00:45.549Z,1015.67
2016-09-27T11:01:45.530Z,1015.62
2016-09-27T11:02:45.513Z,1015.7
2016-09-27T11:03:45.495Z,1015.7
2016-09-27T11:04:45.479Z,1015.67
2016-09-27T11:05:45.461Z,1015.71
2016-09-27T11:06:45.444Z,1015.66
2016-09-27T11:07:45.427Z,1015.62
2016-09-27T11:08:45.411Z,1015.63
2016-09-27T11:09:45.400Z,1015.66
2016-09-27T11:10:45.379Z,1015.63
2016-09-27T11:11:45.360Z,1015.62
2016-09-27T11:12:45.345Z,1015.6
2016-09-27T11:13:45.328Z,1015.62
2016-09-27T11:14:45.310Z,1015.63
2016-09-27T11:15:45.295Z,1015.6
2016-09-27T11:16:45.277Z,1015.65
2016-09-27T11:17:45.262Z,1015.61
2016-09-27T11:18:45.243Z,1015.65
2016-09-27T11:19:45.333Z,1015.58
2016-09-27T11:20:45.212Z,1015.55
2016-09-27T11:21:45.197Z,1015.53
2016-09-27T11:22:45.178Z,1015.55
2016-09-27T11:23:45.162Z,1015.57
2016-09-27T11:24:45.146Z,1015.59
2016-09-27T11:25:45.129Z,1015.5
2016-09-27T11:26:45.111Z,1015.56
2016-09-27T11:27:45.095Z,1015.55
2016-09-27T11:28:45.078Z,1015.54
2016-09-27T11:29:45.062Z,1015.56
2016-09-27T11:30:45.045Z,1015.52
2016-09-27T11:31:45.029Z,1015.49
2016-09-27T11:32:45.012Z,1015.51
2016-09-27T11:33:44.994Z,1015.5
2016-09-27T11:34:44.980Z,1015.5
2016-09-27T11:35:44.963Z,1015.49
2016-09-27T11:36:44.946Z,1015.48
2016-09-27T11:37:44.930Z,1015.45
2016-09-27T11:38:44.914Z,1015.42
2016-09-27T11:39:44.898Z,1015.41
2016-09-27T11:40:44.880Z,1015.43
2016-09-27T11:41:44.865Z,1015.42
2016-09-27T11:42:44.848Z,1015.38
2016-09-27T11:43:44.834Z,1015.39
2016-09-27T11:44:44.815Z,1015.4
2016-09-27T11:45:44.800Z,1015.37
2016-09-27T11:46:44.784Z,1015.33
2016-09-27T11:47:44.767Z,1015.28
2016-09-27T11:48:44.750Z,1015.27
2016-09-27T11:49:44.742Z,1015.27
2016-09-27T11:50:44.719Z,1015.29
2016-09-27T11:51:44.701Z,1015.26
2016-09-27T11:52:44.686Z,1015.27
2016-09-27T11:53:44.670Z,1015.3
2016-09-27T11:54:44.655Z,1015.29
2016-09-27T11:55:44.637Z,1015.28
2016-09-27T11:56:44.622Z,1015.26
2016-09-27T11:57:44.606Z,1015.31
2016-09-27T11:58:44.588Z,1015.31
2016-09-27T11:59:44.572Z,1015.26
2016-09-27T12:00:44.557Z,1015.26
2016-09-27T12:01:44.541Z,1015.27
2016-09-27T12:02:44.523Z,1015.26
2016-09-27T12:03:44.508Z,1015.26
2016-09-27T12:04:44.492Z,1015.31
2016-09-27T12:05:44.475Z,1015.31
2016-09-27T12:06:44.460Z,1015.25
2016-09-27T12:07:44.443Z,1015.27